Terminal Aerodrome Forecast
Issued by NWS Los Angeles, CA

Home | Current Version | Previous Version | Text Only | Print | Product List | Glossary On
Versions: 1 2 3 4 5 6 7 8 9 10 11 12 13 14 15 16 17 18 19 20 21 22 23 24 25 26 27 28 29 30 31 32
815
FTUS46 KLOX 281723
TAFSMX
TAF
KSMX 281723Z 2818/2918 29006KT P6SM SKC
     FM282000 30010KT P6SM SKC
     FM290400 VRB03KT 5SM BR BKN003
     FM290700 VRB03KT 1/2SM FG VV001
     FM291400 VRB03KT 2SM BR OVC004
     FM291530 VRB03KT P6SM SKC=

USA.gov is the U.S. government's official web portal to all federal, state and local government web resources and services.